createdAt,value
2022-10-02T00:02:07.470Z,13.13
2022-10-02T00:04:43.767Z,9.30
2022-10-02T00:07:12.269Z,12.93
2022-10-02T00:09:42.814Z,10.80
2022-10-02T00:12:14.920Z,11.90
2022-10-02T00:14:44.858Z,13.93
2022-10-02T00:17:29.565Z,11.82
2022-10-02T00:19:57.109Z,10.55
2022-10-02T00:22:34.018Z,11.10
2022-10-02T00:25:26.500Z,12.65
2022-10-02T00:28:13.678Z,10.45
2022-10-02T00:31:15.922Z,11.40
2022-10-02T00:33:43.185Z,11.82
2022-10-02T00:36:44.496Z,15.43
2022-10-02T00:39:38.882Z,11.20
2022-10-02T00:42:11.713Z,13.38
2022-10-02T00:45:00.672Z,12.30
2022-10-02T00:47:51.121Z,12.20
2022-10-02T00:50:37.389Z,13.23
2022-10-02T00:53:23.114Z,11.27
2022-10-02T00:56:04.581Z,12.57
2022-10-02T00:58:44.917Z,12.18
2022-10-02T01:01:42.511Z,13.75
2022-10-02T01:04:15.688Z,12.65
2022-10-02T01:06:42.759Z,12.95
2022-10-02T01:09:11.513Z,12.13
2022-10-02T01:11:39.641Z,14.43
2022-10-02T01:14:06.875Z,13.17
2022-10-02T01:16:34.196Z,13.63
2022-10-02T01:19:01.251Z,13.07
2022-10-02T01:21:38.799Z,14.00
2022-10-02T01:24:25.366Z,11.35
2022-10-02T01:26:52.251Z,15.15
2022-10-02T01:29:19.366Z,9.52
2022-10-02T01:31:46.307Z,12.98
2022-10-02T01:34:13.170Z,11.25
2022-10-02T01:36:40.112Z,12.23
2022-10-02T01:39:07.429Z,13.43
2022-10-02T01:41:42.551Z,11.25
2022-10-02T01:44:09.818Z,12.40
2022-10-02T01:46:42.718Z,10.55
2022-10-02T01:49:18.701Z,10.93
2022-10-02T01:51:57.610Z,11.18
2022-10-02T01:56:58.755Z,10.48
2022-10-02T01:59:50.374Z,12.35
2022-10-02T02:02:17.219Z,11.40
2022-10-02T02:04:50.221Z,12.10
2022-10-02T02:07:39.895Z,12.27
2022-10-02T02:10:26.405Z,13.07
2022-10-02T02:12:53.694Z,11.80
2022-10-02T02:15:25.897Z,12.93
2022-10-02T02:18:05.961Z,13.27
2022-10-02T02:20:43.423Z,13.05
2022-10-02T02:23:20.156Z,14.40
2022-10-02T02:25:50.896Z,15.10
2022-10-02T02:28:21.480Z,14.80
2022-10-02T02:30:51.302Z,13.18
2022-10-02T02:33:24.511Z,14.50
2022-10-02T02:35:56.653Z,12.05
2022-10-02T02:38:39.429Z,14.70
2022-10-02T02:41:13.604Z,13.20
2022-10-02T02:43:49.912Z,12.63
2022-10-02T02:46:27.250Z,16.58
2022-10-02T02:49:11.389Z,13.73
2022-10-02T02:51:42.799Z,11.43
2022-10-02T02:54:21.728Z,12.50
2022-10-02T02:59:16.786Z,14.68
2022-10-02T03:01:43.824Z,14.60
2022-10-02T03:04:13.374Z,14.30
2022-10-02T03:06:47.236Z,12.27
2022-10-02T03:09:17.460Z,11.68
2022-10-02T03:11:50.016Z,11.88
2022-10-02T03:14:34.801Z,11.70
2022-10-02T03:17:27.917Z,12.90
2022-10-02T03:20:03.469Z,14.57
2022-10-02T03:22:50.795Z,12.60
2022-10-02T03:25:57.103Z,12.40
2022-10-02T03:28:54.482Z,10.68
2022-10-02T03:31:21.420Z,12.05
2022-10-02T03:33:50.260Z,12.38
2022-10-02T03:36:24.655Z,11.05
2022-10-02T03:39:19.980Z,14.20
2022-10-02T03:41:42.150Z,12.52
2022-10-02T03:44:09.027Z,13.50
2022-10-02T03:46:36.072Z,15.80
2022-10-02T03:49:03.224Z,10.52
2022-10-02T03:51:30.660Z,11.43
2022-10-02T03:53:57.576Z,12.80
2022-10-02T03:56:38.891Z,11.93
2022-10-02T03:59:14.967Z,11.93
2022-10-02T04:01:49.347Z,11.90
2022-10-02T04:04:27.093Z,10.82
2022-10-02T04:07:01.772Z,12.00
2022-10-02T04:09:37.499Z,14.93
2022-10-02T04:12:12.129Z,11.05
2022-10-02T04:14:57.933Z,13.43
2022-10-02T04:17:39.056Z,11.60
2022-10-02T04:20:15.119Z,12.93
2022-10-02T04:23:06.655Z,12.70
2022-10-02T04:25:42.902Z,11.40
2022-10-02T04:28:17.558Z,11.70
2022-10-02T04:30:44.518Z,10.40
2022-10-02T04:33:14.684Z,10.68
2022-10-02T04:35:47.470Z,10.25
2022-10-02T04:38:36.074Z,10.95
2022-10-02T04:41:23.908Z,11.57
2022-10-02T04:44:02.702Z,9.05
2022-10-02T04:46:30.094Z,9.82
2022-10-02T04:48:56.950Z,10.10
2022-10-02T04:51:54.990Z,10.57
2022-10-02T04:54:51.197Z,10.05
2022-10-02T04:57:43.001Z,8.95
2022-10-02T05:00:12.269Z,10.57
2022-10-02T05:03:09.322Z,11.20
2022-10-02T05:06:08.206Z,10.32
2022-10-02T05:08:43.719Z,8.98
2022-10-02T05:11:31.750Z,12.50
2022-10-02T05:14:20.124Z,11.77
2022-10-02T05:17:14.530Z,10.15
2022-10-02T05:19:53.751Z,11.20
2022-10-02T05:22:49.013Z,9.02
2022-10-02T05:25:34.906Z,12.32
2022-10-02T05:28:31.949Z,9.43
2022-10-02T05:31:31.644Z,12.38
2022-10-02T05:34:22.575Z,10.77
2022-10-02T05:36:59.083Z,9.45
2022-10-02T05:39:34.076Z,10.57
2022-10-02T05:42:20.633Z,9.60
2022-10-02T05:44:56.343Z,11.55
2022-10-02T05:47:29.776Z,8.90
2022-10-02T05:50:20.286Z,7.75
2022-10-02T05:52:54.090Z,9.23
2022-10-02T05:55:29.705Z,9.38
2022-10-02T05:58:05.600Z,9.77
2022-10-02T06:00:38.355Z,9.80
2022-10-02T06:03:20.384Z,11.05
2022-10-02T06:05:58.860Z,11.48
2022-10-02T06:08:39.120Z,9.68
2022-10-02T06:11:25.751Z,12.10
2022-10-02T06:14:21.862Z,10.35
2022-10-02T06:16:55.890Z,13.63
2022-10-02T06:19:44.135Z,13.10
2022-10-02T06:22:21.298Z,15.65
2022-10-02T06:25:18.241Z,9.80
2022-10-02T06:27:51.752Z,11.18
2022-10-02T06:30:19.733Z,13.85
2022-10-02T06:33:04.495Z,11.02
2022-10-02T06:35:53.143Z,12.88
2022-10-02T06:38:48.728Z,11.48
2022-10-02T06:41:38.427Z,14.80
2022-10-02T06:44:05.613Z,11.45
2022-10-02T06:46:38.419Z,12.70
2022-10-02T06:49:16.952Z,15.18
2022-10-02T06:52:15.090Z,14.25
2022-10-02T06:54:45.048Z,13.20
2022-10-02T06:57:49.337Z,13.90
2022-10-02T07:00:21.442Z,15.18
2022-10-02T07:03:18.903Z,14.68
2022-10-02T07:05:54.703Z,12.35
2022-10-02T07:08:38.247Z,14.13
2022-10-02T07:11:27.117Z,13.82
2022-10-02T07:16:41.630Z,13.38
2022-10-02T07:20:13.131Z,12.77
2022-10-02T07:23:07.750Z,12.43
2022-10-02T07:25:47.669Z,11.55
2022-10-02T07:28:25.718Z,11.48
2022-10-02T07:31:07.223Z,13.77
2022-10-02T07:33:37.094Z,12.55
2022-10-02T07:36:11.974Z,12.93
2022-10-02T07:39:03.694Z,14.65
2022-10-02T07:42:04.245Z,14.00
2022-10-02T07:44:55.891Z,12.25
2022-10-02T07:47:30.014Z,11.45
2022-10-02T07:50:39.894Z,11.05
2022-10-02T07:53:09.928Z,12.65
2022-10-02T07:55:41.700Z,12.35
2022-10-02T07:58:41.842Z,12.00
2022-10-02T08:01:17.060Z,11.00
2022-10-02T08:03:56.210Z,11.45
2022-10-02T08:06:23.266Z,11.18
2022-10-02T08:08:59.209Z,10.70
2022-10-02T08:11:41.093Z,13.15
2022-10-02T08:14:11.587Z,15.45
2022-10-02T08:17:02.480Z,13.85
2022-10-02T08:19:48.064Z,14.65
2022-10-02T08:22:50.984Z,15.52
2022-10-02T08:25:21.264Z,14.82
2022-10-02T08:28:16.707Z,13.75
2022-10-02T08:30:44.156Z,11.98
2022-10-02T08:33:22.482Z,10.68
2022-10-02T08:36:21.106Z,14.23
2022-10-02T08:38:55.000Z,10.85
2022-10-02T08:41:43.014Z,12.32
2022-10-02T08:44:37.347Z,12.60
2022-10-02T08:47:54.748Z,10.90
2022-10-02T08:50:24.333Z,11.07
2022-10-02T08:53:12.423Z,13.90
2022-10-02T08:55:44.380Z,13.25
2022-10-02T08:58:57.994Z,13.88
2022-10-02T09:02:05.577Z,13.48
2022-10-02T09:04:44.447Z,11.60
2022-10-02T09:07:32.095Z,14.27
2022-10-02T09:10:27.162Z,11.40
2022-10-02T09:13:00.038Z,14.60
2022-10-02T09:15:38.813Z,11.77
2022-10-02T09:18:11.343Z,20.48
2022-10-02T09:20:52.219Z,16.13
2022-10-02T09:23:34.431Z,10.15
2022-10-02T09:26:35.287Z,11.07
2022-10-02T09:29:08.247Z,11.88
2022-10-02T09:31:40.335Z,11.63
2022-10-02T09:34:41.801Z,12.20
2022-10-02T09:37:28.463Z,12.73
2022-10-02T09:40:25.792Z,11.88
2022-10-02T09:43:01.295Z,11.98
2022-10-02T09:45:44.181Z,12.23
2022-10-02T09:48:32.135Z,12.75
2022-10-02T09:51:02.002Z,12.02
2022-10-02T09:53:40.826Z,13.00
2022-10-02T09:58:59.218Z,11.55
2022-10-02T10:01:50.719Z,12.27
2022-10-02T10:05:04.620Z,13.80
2022-10-02T10:07:44.183Z,15.25
2022-10-02T10:10:45.865Z,14.85
2022-10-02T10:13:22.327Z,11.63
2022-10-02T10:15:49.194Z,13.70
2022-10-02T10:18:43.718Z,18.60
2022-10-02T10:21:19.558Z,12.15
2022-10-02T10:24:06.423Z,14.13
2022-10-02T10:26:45.397Z,11.82
2022-10-02T10:29:32.138Z,13.55
2022-10-02T10:32:21.007Z,10.80
2022-10-02T10:38:13.003Z,20.00
2022-10-02T10:40:51.522Z,12.25
2022-10-02T10:43:21.201Z,18.20
2022-10-02T10:45:55.320Z,12.95
2022-10-02T10:48:35.028Z,18.80
2022-10-02T10:51:14.263Z,17.20
2022-10-02T10:54:04.882Z,17.60
2022-10-02T10:57:10.888Z,18.63
2022-10-02T10:59:46.569Z,9.98
2022-10-02T11:02:40.795Z,10.85
2022-10-02T11:05:26.534Z,10.70
2022-10-02T11:08:30.144Z,14.18
2022-10-02T11:11:18.364Z,11.88
2022-10-02T11:14:16.146Z,14.80
2022-10-02T11:17:04.649Z,13.50
2022-10-02T11:20:07.038Z,11.20
2022-10-02T11:23:11.174Z,11.45
2022-10-02T11:26:13.429Z,10.70
2022-10-02T11:29:17.828Z,10.15
2022-10-02T11:31:50.742Z,12.93
2022-10-02T11:35:00.602Z,11.30
2022-10-02T11:38:05.858Z,17.08
2022-10-02T11:40:34.121Z,14.82
2022-10-02T11:43:30.065Z,10.18
2022-10-02T11:46:19.284Z,18.40
2022-10-02T11:49:07.678Z,16.88
2022-10-02T11:52:08.868Z,11.50
2022-10-02T11:55:01.519Z,11.50
2022-10-02T11:57:52.143Z,8.65
2022-10-02T12:00:34.319Z,12.93
2022-10-02T12:03:15.465Z,14.27
2022-10-02T12:05:53.512Z,11.68
2022-10-02T12:08:34.354Z,9.38
2022-10-02T12:11:36.694Z,10.55
2022-10-02T12:14:33.410Z,10.07
2022-10-02T12:17:25.990Z,14.27
2022-10-02T12:20:20.468Z,15.90
2022-10-02T12:23:41.220Z,10.88
2022-10-02T12:26:39.303Z,11.27
2022-10-02T12:29:32.709Z,15.93
2022-10-02T12:32:48.845Z,9.70
2022-10-02T12:35:17.952Z,11.23
2022-10-02T12:38:05.377Z,8.05
2022-10-02T12:40:56.629Z,16.05
2022-10-02T12:43:41.690Z,9.95
2022-10-02T12:46:13.705Z,9.88
2022-10-02T12:49:00.754Z,10.80
2022-10-02T12:52:09.527Z,14.57
2022-10-02T12:54:45.581Z,7.70
2022-10-02T12:57:39.257Z,10.27
2022-10-02T13:00:07.172Z,12.35
2022-10-02T13:03:07.874Z,13.65
2022-10-02T13:06:05.505Z,10.95
2022-10-02T13:09:00.895Z,15.80
2022-10-02T13:11:28.121Z,11.20
2022-10-02T13:14:11.310Z,12.30
2022-10-02T13:17:00.724Z,12.95
2022-10-02T13:20:20.771Z,16.25
2022-10-02T13:23:13.079Z,17.77
2022-10-02T13:25:57.215Z,14.70
2022-10-02T13:28:41.960Z,16.60
2022-10-02T13:31:16.941Z,12.95
2022-10-02T13:34:19.132Z,15.75
2022-10-02T13:37:18.232Z,13.15
2022-10-02T13:40:20.916Z,15.18
2022-10-02T13:42:51.169Z,10.43
2022-10-02T13:45:49.968Z,14.20
2022-10-02T13:48:35.903Z,11.23
2022-10-02T13:51:43.296Z,15.10
2022-10-02T13:54:29.018Z,16.05
2022-10-02T13:57:20.554Z,11.38
2022-10-02T14:00:10.623Z,11.77
2022-10-02T14:03:01.761Z,11.07
2022-10-02T14:05:52.443Z,11.50
2022-10-02T14:08:42.145Z,17.52
2022-10-02T14:11:35.224Z,17.48
2022-10-02T14:14:11.753Z,14.02
2022-10-02T14:16:53.518Z,12.20
2022-10-02T14:19:35.427Z,12.45
2022-10-02T14:22:26.655Z,10.40
2022-10-02T14:25:08.093Z,10.57
2022-10-02T14:27:59.549Z,13.15
2022-10-02T14:31:13.557Z,12.43
2022-10-02T14:34:01.552Z,13.45
2022-10-02T14:36:55.829Z,13.00
2022-10-02T14:39:42.627Z,10.90
2022-10-02T14:42:34.660Z,10.90
2022-10-02T14:45:50.889Z,9.98
2022-10-02T14:48:50.042Z,8.10
2022-10-02T14:51:26.356Z,8.40
2022-10-02T14:54:17.991Z,9.63
2022-10-02T14:57:09.734Z,7.95
2022-10-02T15:00:13.797Z,8.57
2022-10-02T15:03:13.814Z,10.55
2022-10-02T15:05:55.735Z,8.93
2022-10-02T15:08:48.183Z,8.40
2022-10-02T15:11:54.322Z,9.65
2022-10-02T15:14:38.163Z,7.10
2022-10-02T15:17:36.063Z,11.45
2022-10-02T15:20:31.641Z,8.20
2022-10-02T15:23:04.158Z,9.32
2022-10-02T15:25:49.662Z,8.20
2022-10-02T15:28:44.898Z,8.43
2022-10-02T15:31:23.156Z,11.32
2022-10-02T15:34:00.328Z,16.10
2022-10-02T15:36:43.485Z,13.93
2022-10-02T15:39:29.110Z,13.25
2022-10-02T15:42:06.490Z,10.93
2022-10-02T15:45:03.780Z,11.48
2022-10-02T15:47:40.123Z,8.63
2022-10-02T15:50:34.517Z,8.48
2022-10-02T15:53:42.512Z,9.60
2022-10-02T15:56:33.254Z,7.65
2022-10-02T15:59:42.854Z,9.55
2022-10-02T16:02:31.170Z,9.48
2022-10-02T16:05:25.687Z,9.88
2022-10-02T16:08:29.923Z,10.25
2022-10-02T16:11:18.130Z,11.80
2022-10-02T16:14:03.055Z,11.27
2022-10-02T16:16:42.193Z,12.75
2022-10-02T16:19:25.443Z,12.35
2022-10-02T16:22:07.285Z,12.40
2022-10-02T16:24:55.879Z,9.98
2022-10-02T16:27:49.601Z,10.27
2022-10-02T16:30:19.271Z,10.20
2022-10-02T16:33:04.124Z,10.45
2022-10-02T16:36:02.695Z,10.20
2022-10-02T16:38:38.015Z,9.73
2022-10-02T16:41:19.729Z,9.30
2022-10-02T16:43:46.630Z,11.48
2022-10-02T16:46:31.744Z,11.95
2022-10-02T16:49:23.824Z,13.20
2022-10-02T16:52:18.645Z,14.82
2022-10-02T16:54:54.697Z,11.30
2022-10-02T16:57:47.338Z,10.95
2022-10-02T17:00:34.099Z,12.82
2022-10-02T17:03:03.956Z,13.90
2022-10-02T17:05:46.648Z,16.13
2022-10-02T17:08:31.342Z,10.20
2022-10-02T17:11:09.801Z,10.10
2022-10-02T17:14:14.800Z,8.52
2022-10-02T17:17:08.874Z,8.27
2022-10-02T17:19:45.922Z,8.10
2022-10-02T17:22:51.408Z,8.57
2022-10-02T17:25:36.812Z,8.60
2022-10-02T17:28:27.362Z,7.93
2022-10-02T17:31:13.176Z,8.10
2022-10-02T17:34:00.956Z,6.72
2022-10-02T17:36:58.482Z,6.63
2022-10-02T17:39:34.070Z,6.22
2022-10-02T17:42:32.761Z,7.80
2022-10-02T17:45:00.153Z,7.90
2022-10-02T17:47:51.173Z,7.85
2022-10-02T17:50:43.922Z,7.57
2022-10-02T17:53:38.658Z,8.02
2022-10-02T17:56:28.657Z,6.47
2022-10-02T17:59:07.520Z,6.20
2022-10-02T18:04:47.553Z,6.53
2022-10-02T18:07:40.441Z,6.97
2022-10-02T18:10:41.508Z,7.75
2022-10-02T18:13:36.779Z,7.90
2022-10-02T18:16:06.721Z,7.97
2022-10-02T18:18:59.166Z,6.57
2022-10-02T18:21:46.807Z,7.00
2022-10-02T18:24:39.687Z,7.03
2022-10-02T18:27:07.881Z,5.75
2022-10-02T18:29:40.822Z,6.35
2022-10-02T18:32:13.004Z,5.22
2022-10-02T18:35:04.275Z,5.70
2022-10-02T18:38:09.198Z,5.70
2022-10-02T18:41:13.096Z,5.15
2022-10-02T18:43:47.774Z,5.93
2022-10-02T18:46:32.708Z,5.13
2022-10-02T18:49:19.367Z,6.43
2022-10-02T18:51:46.428Z,5.88
2022-10-02T18:54:42.090Z,6.20
2022-10-02T18:57:08.858Z,6.30
2022-10-02T18:59:47.588Z,6.47
2022-10-02T19:02:17.494Z,6.95
2022-10-02T19:05:22.678Z,4.65
2022-10-02T19:08:06.387Z,4.35
2022-10-02T19:10:33.264Z,5.60
2022-10-02T19:13:21.691Z,4.93
2022-10-02T19:15:51.431Z,3.97
2022-10-02T19:18:25.944Z,5.35
2022-10-02T19:20:59.024Z,4.03
2022-10-02T19:23:28.350Z,4.63
2022-10-02T19:25:57.530Z,5.40
2022-10-02T19:28:28.825Z,4.57
2022-10-02T19:31:03.972Z,5.25
2022-10-02T19:33:45.193Z,4.47
2022-10-02T19:36:19.234Z,4.43
2022-10-02T19:38:54.583Z,3.22
2022-10-02T19:41:23.407Z,4.20
2022-10-02T19:44:08.399Z,4.00
2022-10-02T19:46:43.213Z,4.93
2022-10-02T19:49:31.270Z,6.35
2022-10-02T19:51:58.347Z,5.50
2022-10-02T19:54:36.845Z,3.42
2022-10-02T19:57:11.140Z,5.15
2022-10-02T19:59:54.569Z,4.28
2022-10-02T20:02:36.610Z,2.17
2022-10-02T20:05:07.555Z,6.22
2022-10-02T20:07:37.723Z,2.95
2022-10-02T20:10:11.669Z,4.53
2022-10-02T20:12:45.082Z,3.83
2022-10-02T20:15:14.881Z,3.10
2022-10-02T20:17:42.326Z,3.50
2022-10-02T20:20:18.507Z,2.78
2022-10-02T20:22:59.462Z,2.22
2022-10-02T20:25:34.915Z,2.75
2022-10-02T20:28:15.294Z,2.13
2022-10-02T20:30:47.204Z,2.85
2022-10-02T20:33:24.655Z,3.22
2022-10-02T20:35:57.712Z,5.10
2022-10-02T20:38:53.583Z,3.22
2022-10-02T20:41:33.726Z,4.45
2022-10-02T20:44:04.740Z,3.55
2022-10-02T20:46:53.909Z,2.50
2022-10-02T20:49:52.876Z,2.38
2022-10-02T20:52:19.945Z,3.08
2022-10-02T20:55:17.271Z,2.95
2022-10-02T20:58:31.664Z,1.90
2022-10-02T21:01:07.193Z,3.60
2022-10-02T21:03:37.121Z,1.92
2022-10-02T21:06:11.276Z,3.50
2022-10-02T21:08:41.229Z,4.15
2022-10-02T21:11:17.088Z,3.42
2022-10-02T21:13:55.009Z,3.75
2022-10-02T21:16:40.003Z,3.47
2022-10-02T21:19:10.175Z,2.95
2022-10-02T21:21:58.551Z,2.22
2022-10-02T21:24:31.023Z,2.45
2022-10-02T21:27:07.105Z,2.70
2022-10-02T21:30:11.488Z,3.00
2022-10-02T21:32:41.074Z,2.88
2022-10-02T21:35:32.030Z,3.17
2022-10-02T21:38:28.075Z,2.75
2022-10-02T21:40:58.136Z,3.75
2022-10-02T21:43:54.680Z,3.05
2022-10-02T21:46:41.383Z,2.72
2022-10-02T21:49:20.144Z,2.40
2022-10-02T21:51:52.984Z,1.90
2022-10-02T21:55:02.333Z,2.83
2022-10-02T21:57:47.998Z,3.00
2022-10-02T22:00:22.311Z,2.40
2022-10-02T22:03:04.493Z,2.85
2022-10-02T22:05:37.196Z,2.30
2022-10-02T22:08:13.249Z,3.53
2022-10-02T22:11:12.355Z,2.38
2022-10-02T22:13:40.772Z,3.03
2022-10-02T22:16:21.459Z,2.85
2022-10-02T22:19:22.065Z,3.15
2022-10-02T22:22:19.781Z,2.30
2022-10-02T22:25:05.217Z,2.97
2022-10-02T22:27:56.483Z,2.30
2022-10-02T22:30:29.018Z,3.33
2022-10-02T22:33:10.995Z,4.65
2022-10-02T22:35:59.284Z,3.78
2022-10-02T22:38:34.689Z,4.50
2022-10-02T22:41:07.122Z,4.57
2022-10-02T22:44:01.942Z,4.03
2022-10-02T22:46:47.596Z,4.45
2022-10-02T22:49:39.568Z,3.75
2022-10-02T22:52:28.877Z,5.80
2022-10-02T22:54:55.718Z,2.78
2022-10-02T22:57:32.901Z,3.92
2022-10-02T23:00:05.706Z,3.53
2022-10-02T23:02:44.079Z,3.28
2022-10-02T23:05:11.094Z,4.75
2022-10-02T23:07:49.667Z,3.88
2022-10-02T23:10:25.159Z,1.90
2022-10-02T23:13:13.900Z,5.35
2022-10-02T23:15:46.785Z,2.90
2022-10-02T23:18:35.043Z,2.92
2022-10-02T23:21:32.581Z,4.65
2022-10-02T23:24:22.515Z,4.20
2022-10-02T23:26:55.147Z,3.78
2022-10-02T23:29:38.887Z,3.17
2022-10-02T23:32:36.743Z,2.70
2022-10-02T23:35:25.540Z,3.50
2022-10-02T23:37:52.883Z,2.35
2022-10-02T23:40:20.193Z,4.90
2022-10-02T23:42:54.754Z,3.45
2022-10-02T23:45:26.622Z,3.72
2022-10-02T23:48:04.259Z,5.18
2022-10-02T23:50:57.224Z,3.95
2022-10-02T23:53:36.725Z,3.33
2022-10-02T23:56:23.756Z,4.03
2022-10-02T23:59:02.433Z,3.15
